sensor_id;sensor_type;location;lat;lon;timestamp;P1;durP1;ratioP1;P2;durP2;ratioP2
68449;SDS011;67758;39.572;2.652;2023-07-02T00:01:15;9.40;;;4.90;;
68449;SDS011;67758;39.572;2.652;2023-07-02T00:03:41;12.15;;;4.95;;
68449;SDS011;67758;39.572;2.652;2023-07-02T00:06:07;12.00;;;4.93;;
68449;SDS011;67758;39.572;2.652;2023-07-02T00:08:32;10.40;;;4.25;;
68449;SDS011;67758;39.572;2.652;2023-07-02T00:11:10;14.50;;;4.67;;
68449;SDS011;67758;39.572;2.652;2023-07-02T00:16:55;12.82;;;4.80;;
68449;SDS011;67758;39.572;2.652;2023-07-02T00:19:22;9.83;;;4.33;;
68449;SDS011;67758;39.572;2.652;2023-07-02T00:21:50;13.50;;;4.85;;
68449;SDS011;67758;39.572;2.652;2023-07-02T00:24:19;11.20;;;5.03;;
68449;SDS011;67758;39.572;2.652;2023-07-02T00:26:45;10.07;;;4.70;;
68449;SDS011;67758;39.572;2.652;2023-07-02T00:29:11;12.30;;;5.10;;
68449;SDS011;67758;39.572;2.652;2023-07-02T00:31:37;11.80;;;4.70;;
68449;SDS011;67758;39.572;2.652;2023-07-02T00:34:03;13.17;;;4.67;;
68449;SDS011;67758;39.572;2.652;2023-07-02T00:36:31;10.48;;;4.90;;
68449;SDS011;67758;39.572;2.652;2023-07-02T00:38:57;13.63;;;5.35;;
68449;SDS011;67758;39.572;2.652;2023-07-02T00:41:23;19.38;;;5.43;;
68449;SDS011;67758;39.572;2.652;2023-07-02T00:43:49;12.33;;;4.97;;
68449;SDS011;67758;39.572;2.652;2023-07-02T00:46:19;10.80;;;4.88;;
68449;SDS011;67758;39.572;2.652;2023-07-02T00:48:50;13.18;;;5.13;;
68449;SDS011;67758;39.572;2.652;2023-07-02T00:51:17;12.13;;;4.90;;
68449;SDS011;67758;39.572;2.652;2023-07-02T00:53:47;11.10;;;4.88;;
68449;SDS011;67758;39.572;2.652;2023-07-02T00:56:14;11.37;;;5.33;;
68449;SDS011;67758;39.572;2.652;2023-07-02T00:58:43;13.35;;;5.15;;
68449;SDS011;67758;39.572;2.652;2023-07-02T01:01:16;12.20;;;4.72;;
68449;SDS011;67758;39.572;2.652;2023-07-02T01:03:56;10.77;;;4.93;;
68449;SDS011;67758;39.572;2.652;2023-07-02T01:06:26;11.90;;;5.35;;
68449;SDS011;67758;39.572;2.652;2023-07-02T01:08:56;11.87;;;4.67;;
68449;SDS011;67758;39.572;2.652;2023-07-02T01:11:29;14.85;;;5.57;;
68449;SDS011;67758;39.572;2.652;2023-07-02T01:13:58;12.68;;;4.88;;
68449;SDS011;67758;39.572;2.652;2023-07-02T01:16:28;12.35;;;4.68;;
68449;SDS011;67758;39.572;2.652;2023-07-02T01:19:02;11.80;;;4.90;;
68449;SDS011;67758;39.572;2.652;2023-07-02T01:21:31;12.30;;;5.30;;
68449;SDS011;67758;39.572;2.652;2023-07-02T01:23:58;10.20;;;4.40;;
68449;SDS011;67758;39.572;2.652;2023-07-02T01:26:28;14.10;;;5.05;;
68449;SDS011;67758;39.572;2.652;2023-07-02T01:29:00;11.43;;;5.10;;
68449;SDS011;67758;39.572;2.652;2023-07-02T01:31:39;10.75;;;4.95;;
68449;SDS011;67758;39.572;2.652;2023-07-02T01:34:05;12.00;;;5.30;;
68449;SDS011;67758;39.572;2.652;2023-07-02T01:36:33;10.57;;;4.75;;
68449;SDS011;67758;39.572;2.652;2023-07-02T01:38:59;13.82;;;4.72;;
68449;SDS011;67758;39.572;2.652;2023-07-02T01:41:25;13.90;;;5.10;;
68449;SDS011;67758;39.572;2.652;2023-07-02T01:43:51;15.07;;;5.35;;
68449;SDS011;67758;39.572;2.652;2023-07-02T01:46:17;16.02;;;5.70;;
68449;SDS011;67758;39.572;2.652;2023-07-02T01:48:43;12.10;;;4.93;;
68449;SDS011;67758;39.572;2.652;2023-07-02T01:51:08;13.57;;;5.50;;
68449;SDS011;67758;39.572;2.652;2023-07-02T01:53:34;11.83;;;5.77;;
68449;SDS011;67758;39.572;2.652;2023-07-02T01:56:00;15.55;;;5.50;;
68449;SDS011;67758;39.572;2.652;2023-07-02T01:58:26;12.40;;;5.03;;
68449;SDS011;67758;39.572;2.652;2023-07-02T02:00:52;10.87;;;4.67;;
68449;SDS011;67758;39.572;2.652;2023-07-02T02:03:18;11.68;;;5.20;;
68449;SDS011;67758;39.572;2.652;2023-07-02T02:05:44;11.30;;;5.00;;
68449;SDS011;67758;39.572;2.652;2023-07-02T02:08:09;12.97;;;4.97;;
68449;SDS011;67758;39.572;2.652;2023-07-02T02:10:35;12.20;;;4.83;;
68449;SDS011;67758;39.572;2.652;2023-07-02T02:13:01;11.77;;;4.88;;
68449;SDS011;67758;39.572;2.652;2023-07-02T02:15:26;12.30;;;5.03;;
68449;SDS011;67758;39.572;2.652;2023-07-02T02:17:52;16.88;;;6.15;;
68449;SDS011;67758;39.572;2.652;2023-07-02T02:20:18;12.40;;;5.18;;
68449;SDS011;67758;39.572;2.652;2023-07-02T02:22:44;10.93;;;5.20;;
68449;SDS011;67758;39.572;2.652;2023-07-02T02:25:09;14.68;;;5.15;;
68449;SDS011;67758;39.572;2.652;2023-07-02T02:27:35;14.00;;;5.53;;
68449;SDS011;67758;39.572;2.652;2023-07-02T02:30:01;13.40;;;5.23;;
68449;SDS011;67758;39.572;2.652;2023-07-02T02:32:27;11.70;;;5.60;;
68449;SDS011;67758;39.572;2.652;2023-07-02T02:34:52;11.52;;;5.18;;
68449;SDS011;67758;39.572;2.652;2023-07-02T02:37:21;13.20;;;5.07;;
68449;SDS011;67758;39.572;2.652;2023-07-02T02:39:47;14.27;;;5.27;;
68449;SDS011;67758;39.572;2.652;2023-07-02T02:42:13;14.82;;;5.22;;
68449;SDS011;67758;39.572;2.652;2023-07-02T02:44:41;10.23;;;4.50;;
68449;SDS011;67758;39.572;2.652;2023-07-02T02:47:07;14.17;;;5.00;;
68449;SDS011;67758;39.572;2.652;2023-07-02T02:49:33;11.70;;;4.70;;
68449;SDS011;67758;39.572;2.652;2023-07-02T02:51:58;13.33;;;5.47;;
68449;SDS011;67758;39.572;2.652;2023-07-02T02:54:25;11.85;;;5.57;;
68449;SDS011;67758;39.572;2.652;2023-07-02T02:56:51;10.05;;;5.05;;
68449;SDS011;67758;39.572;2.652;2023-07-02T02:59:16;11.10;;;4.93;;
68449;SDS011;67758;39.572;2.652;2023-07-02T03:01:42;13.30;;;5.13;;
68449;SDS011;67758;39.572;2.652;2023-07-02T03:04:08;12.57;;;5.43;;
68449;SDS011;67758;39.572;2.652;2023-07-02T03:06:34;12.48;;;4.95;;
68449;SDS011;67758;39.572;2.652;2023-07-02T03:08:59;10.25;;;4.75;;
68449;SDS011;67758;39.572;2.652;2023-07-02T03:11:25;14.50;;;5.30;;
68449;SDS011;67758;39.572;2.652;2023-07-02T03:13:51;11.57;;;4.63;;
68449;SDS011;67758;39.572;2.652;2023-07-02T03:16:16;12.90;;;4.70;;
68449;SDS011;67758;39.572;2.652;2023-07-02T03:18:42;13.57;;;5.38;;
68449;SDS011;67758;39.572;2.652;2023-07-02T03:21:08;9.60;;;4.80;;
68449;SDS011;67758;39.572;2.652;2023-07-02T03:23:35;11.93;;;4.40;;
68449;SDS011;67758;39.572;2.652;2023-07-02T03:26:01;10.95;;;4.68;;
68449;SDS011;67758;39.572;2.652;2023-07-02T03:28:26;10.43;;;4.20;;
68449;SDS011;67758;39.572;2.652;2023-07-02T03:30:53;15.80;;;5.57;;
68449;SDS011;67758;39.572;2.652;2023-07-02T03:33:18;12.30;;;4.83;;
68449;SDS011;67758;39.572;2.652;2023-07-02T03:35:44;11.10;;;5.00;;
68449;SDS011;67758;39.572;2.652;2023-07-02T03:38:10;15.40;;;4.95;;
68449;SDS011;67758;39.572;2.652;2023-07-02T03:40:35;13.97;;;5.40;;
68449;SDS011;67758;39.572;2.652;2023-07-02T03:43:01;12.40;;;5.03;;
68449;SDS011;67758;39.572;2.652;2023-07-02T03:45:27;11.55;;;5.07;;
68449;SDS011;67758;39.572;2.652;2023-07-02T03:47:52;10.53;;;5.13;;
68449;SDS011;67758;39.572;2.652;2023-07-02T03:50:18;12.57;;;5.33;;
68449;SDS011;67758;39.572;2.652;2023-07-02T03:52:44;12.05;;;5.22;;
68449;SDS011;67758;39.572;2.652;2023-07-02T03:55:10;11.03;;;5.03;;
68449;SDS011;67758;39.572;2.652;2023-07-02T03:57:35;11.18;;;5.18;;
68449;SDS011;67758;39.572;2.652;2023-07-02T04:00:03;13.63;;;5.63;;
68449;SDS011;67758;39.572;2.652;2023-07-02T04:02:40;12.77;;;5.32;;
68449;SDS011;67758;39.572;2.652;2023-07-02T04:05:08;10.85;;;5.22;;
68449;SDS011;67758;39.572;2.652;2023-07-02T04:07:36;12.00;;;5.28;;
68449;SDS011;67758;39.572;2.652;2023-07-02T04:19:26;14.02;;;5.82;;
68449;SDS011;67758;39.572;2.652;2023-07-02T04:21:57;14.48;;;5.88;;
68449;SDS011;67758;39.572;2.652;2023-07-02T04:24:23;11.90;;;5.73;;
68449;SDS011;67758;39.572;2.652;2023-07-02T04:26:48;14.23;;;5.55;;
68449;SDS011;67758;39.572;2.652;2023-07-02T04:29:14;16.03;;;5.63;;
68449;SDS011;67758;39.572;2.652;2023-07-02T04:31:40;15.68;;;6.28;;
68449;SDS011;67758;39.572;2.652;2023-07-02T04:34:05;12.03;;;5.67;;
68449;SDS011;67758;39.572;2.652;2023-07-02T04:36:31;14.30;;;5.85;;
68449;SDS011;67758;39.572;2.652;2023-07-02T04:38:57;12.88;;;6.20;;
68449;SDS011;67758;39.572;2.652;2023-07-02T04:41:23;14.07;;;5.07;;
68449;SDS011;67758;39.572;2.652;2023-07-02T04:43:49;15.55;;;5.85;;
68449;SDS011;67758;39.572;2.652;2023-07-02T04:46:15;12.45;;;5.90;;
68449;SDS011;67758;39.572;2.652;2023-07-02T04:48:43;14.73;;;5.72;;
68449;SDS011;67758;39.572;2.652;2023-07-02T04:51:13;14.77;;;5.80;;
68449;SDS011;67758;39.572;2.652;2023-07-02T04:53:39;11.48;;;5.47;;
68449;SDS011;67758;39.572;2.652;2023-07-02T04:56:05;17.38;;;6.80;;
68449;SDS011;67758;39.572;2.652;2023-07-02T04:58:31;15.43;;;5.50;;
68449;SDS011;67758;39.572;2.652;2023-07-02T05:00:57;14.88;;;5.63;;
68449;SDS011;67758;39.572;2.652;2023-07-02T05:03:22;14.37;;;5.63;;
68449;SDS011;67758;39.572;2.652;2023-07-02T05:05:48;13.48;;;5.93;;
68449;SDS011;67758;39.572;2.652;2023-07-02T05:08:14;15.15;;;5.82;;
68449;SDS011;67758;39.572;2.652;2023-07-02T05:10:40;15.97;;;5.97;;
68449;SDS011;67758;39.572;2.652;2023-07-02T05:13:08;14.73;;;5.88;;
68449;SDS011;67758;39.572;2.652;2023-07-02T05:15:34;15.95;;;6.30;;
68449;SDS011;67758;39.572;2.652;2023-07-02T05:18:00;12.87;;;5.87;;
68449;SDS011;67758;39.572;2.652;2023-07-02T05:20:26;12.65;;;5.88;;
68449;SDS011;67758;39.572;2.652;2023-07-02T05:22:51;14.93;;;6.03;;
68449;SDS011;67758;39.572;2.652;2023-07-02T05:25:17;13.40;;;5.82;;
68449;SDS011;67758;39.572;2.652;2023-07-02T05:27:44;15.07;;;5.95;;
68449;SDS011;67758;39.572;2.652;2023-07-02T05:30:10;13.73;;;6.47;;
68449;SDS011;67758;39.572;2.652;2023-07-02T05:32:36;14.15;;;6.43;;
68449;SDS011;67758;39.572;2.652;2023-07-02T05:35:04;15.85;;;6.78;;
68449;SDS011;67758;39.572;2.652;2023-07-02T05:37:30;16.30;;;6.57;;
68449;SDS011;67758;39.572;2.652;2023-07-02T05:39:56;15.30;;;6.87;;
68449;SDS011;67758;39.572;2.652;2023-07-02T05:42:21;17.95;;;6.30;;
68449;SDS011;67758;39.572;2.652;2023-07-02T05:44:49;11.88;;;5.90;;
68449;SDS011;67758;39.572;2.652;2023-07-02T05:47:15;18.45;;;6.13;;
68449;SDS011;67758;39.572;2.652;2023-07-02T05:49:41;13.52;;;6.78;;
68449;SDS011;67758;39.572;2.652;2023-07-02T05:52:08;15.83;;;6.17;;
68449;SDS011;67758;39.572;2.652;2023-07-02T05:54:39;16.90;;;6.25;;
68449;SDS011;67758;39.572;2.652;2023-07-02T05:57:06;13.57;;;6.32;;
68449;SDS011;67758;39.572;2.652;2023-07-02T05:59:31;12.60;;;5.90;;
68449;SDS011;67758;39.572;2.652;2023-07-02T06:01:57;16.30;;;6.40;;
68449;SDS011;67758;39.572;2.652;2023-07-02T06:04:23;14.70;;;7.10;;
68449;SDS011;67758;39.572;2.652;2023-07-02T06:06:49;12.35;;;6.05;;
68449;SDS011;67758;39.572;2.652;2023-07-02T06:09:14;13.75;;;6.38;;
68449;SDS011;67758;39.572;2.652;2023-07-02T06:11:40;12.55;;;6.55;;
68449;SDS011;67758;39.572;2.652;2023-07-02T06:14:07;13.77;;;6.50;;
68449;SDS011;67758;39.572;2.652;2023-07-02T06:16:33;15.37;;;7.17;;
68449;SDS011;67758;39.572;2.652;2023-07-02T06:18:58;15.27;;;6.63;;
68449;SDS011;67758;39.572;2.652;2023-07-02T06:21:27;15.88;;;7.18;;
68449;SDS011;67758;39.572;2.652;2023-07-02T06:23:56;16.65;;;6.95;;
68449;SDS011;67758;39.572;2.652;2023-07-02T06:26:24;19.30;;;7.70;;
68449;SDS011;67758;39.572;2.652;2023-07-02T06:28:52;17.38;;;7.22;;
68449;SDS011;67758;39.572;2.652;2023-07-02T06:31:18;18.45;;;7.75;;
68449;SDS011;67758;39.572;2.652;2023-07-02T06:33:44;13.85;;;7.00;;
68449;SDS011;67758;39.572;2.652;2023-07-02T06:36:15;14.13;;;6.60;;
68449;SDS011;67758;39.572;2.652;2023-07-02T06:38:45;15.73;;;7.05;;
68449;SDS011;67758;39.572;2.652;2023-07-02T06:41:14;14.00;;;7.82;;
68449;SDS011;67758;39.572;2.652;2023-07-02T06:43:47;16.20;;;6.78;;
68449;SDS011;67758;39.572;2.652;2023-07-02T06:46:13;12.73;;;6.67;;
68449;SDS011;67758;39.572;2.652;2023-07-02T06:48:41;13.93;;;7.13;;
68449;SDS011;67758;39.572;2.652;2023-07-02T06:51:10;16.20;;;8.00;;
68449;SDS011;67758;39.572;2.652;2023-07-02T06:53:42;14.75;;;7.40;;
68449;SDS011;67758;39.572;2.652;2023-07-02T06:56:16;16.88;;;7.03;;
68449;SDS011;67758;39.572;2.652;2023-07-02T06:58:57;14.10;;;6.22;;
68449;SDS011;67758;39.572;2.652;2023-07-02T07:01:30;17.05;;;8.02;;
68449;SDS011;67758;39.572;2.652;2023-07-02T07:04:23;16.38;;;6.88;;
68449;SDS011;67758;39.572;2.652;2023-07-02T07:07:10;15.43;;;6.93;;
68449;SDS011;67758;39.572;2.652;2023-07-02T07:09:57;19.08;;;6.25;;
68449;SDS011;67758;39.572;2.652;2023-07-02T07:12:27;14.77;;;5.63;;
68449;SDS011;67758;39.572;2.652;2023-07-02T07:15:19;15.82;;;6.35;;
68449;SDS011;67758;39.572;2.652;2023-07-02T07:18:01;14.55;;;6.32;;
68449;SDS011;67758;39.572;2.652;2023-07-02T07:20:30;12.70;;;5.90;;
68449;SDS011;67758;39.572;2.652;2023-07-02T07:22:57;14.90;;;6.82;;
68449;SDS011;67758;39.572;2.652;2023-07-02T07:25:23;13.20;;;6.25;;
68449;SDS011;67758;39.572;2.652;2023-07-02T07:27:49;14.77;;;5.97;;
68449;SDS011;67758;39.572;2.652;2023-07-02T07:30:15;11.57;;;5.38;;
68449;SDS011;67758;39.572;2.652;2023-07-02T07:32:50;16.73;;;5.90;;
68449;SDS011;67758;39.572;2.652;2023-07-02T07:35:17;14.33;;;6.27;;
68449;SDS011;67758;39.572;2.652;2023-07-02T07:37:43;13.93;;;5.97;;
68449;SDS011;67758;39.572;2.652;2023-07-02T07:40:09;11.70;;;5.47;;
68449;SDS011;67758;39.572;2.652;2023-07-02T07:42:36;14.18;;;6.35;;
68449;SDS011;67758;39.572;2.652;2023-07-02T07:45:05;15.37;;;6.20;;
68449;SDS011;67758;39.572;2.652;2023-07-02T07:47:31;14.73;;;6.30;;
68449;SDS011;67758;39.572;2.652;2023-07-02T07:49:57;13.48;;;6.43;;
68449;SDS011;67758;39.572;2.652;2023-07-02T07:52:23;14.07;;;6.07;;
68449;SDS011;67758;39.572;2.652;2023-07-02T07:54:49;14.27;;;6.13;;
68449;SDS011;67758;39.572;2.652;2023-07-02T07:57:15;15.27;;;7.10;;
68449;SDS011;67758;39.572;2.652;2023-07-02T07:59:40;14.85;;;6.68;;
68449;SDS011;67758;39.572;2.652;2023-07-02T08:02:06;12.10;;;6.57;;
68449;SDS011;67758;39.572;2.652;2023-07-02T08:04:32;14.75;;;5.95;;
68449;SDS011;67758;39.572;2.652;2023-07-02T08:06:57;14.00;;;6.03;;
68449;SDS011;67758;39.572;2.652;2023-07-02T08:09:23;12.40;;;6.70;;
68449;SDS011;67758;39.572;2.652;2023-07-02T08:11:49;13.83;;;6.37;;
68449;SDS011;67758;39.572;2.652;2023-07-02T08:14:18;15.63;;;6.47;;
68449;SDS011;67758;39.572;2.652;2023-07-02T08:16:44;15.25;;;7.28;;
68449;SDS011;67758;39.572;2.652;2023-07-02T08:19:11;17.95;;;6.55;;
68449;SDS011;67758;39.572;2.652;2023-07-02T08:21:36;14.07;;;5.90;;
68449;SDS011;67758;39.572;2.652;2023-07-02T08:24:02;16.63;;;6.10;;
68449;SDS011;67758;39.572;2.652;2023-07-02T08:26:29;12.73;;;6.40;;
68449;SDS011;67758;39.572;2.652;2023-07-02T08:28:57;14.20;;;6.93;;
68449;SDS011;67758;39.572;2.652;2023-07-02T08:31:24;13.47;;;6.40;;
68449;SDS011;67758;39.572;2.652;2023-07-02T08:33:50;14.40;;;6.65;;
68449;SDS011;67758;39.572;2.652;2023-07-02T08:36:17;11.70;;;6.32;;
68449;SDS011;67758;39.572;2.652;2023-07-02T08:38:44;13.10;;;6.40;;
68449;SDS011;67758;39.572;2.652;2023-07-02T08:41:09;14.48;;;6.57;;
68449;SDS011;67758;39.572;2.652;2023-07-02T08:43:35;19.23;;;7.17;;
68449;SDS011;67758;39.572;2.652;2023-07-02T08:46:02;14.18;;;6.55;;
68449;SDS011;67758;39.572;2.652;2023-07-02T08:48:29;16.05;;;7.30;;
68449;SDS011;67758;39.572;2.652;2023-07-02T08:50:55;16.33;;;6.65;;
68449;SDS011;67758;39.572;2.652;2023-07-02T08:53:22;16.42;;;7.55;;
68449;SDS011;67758;39.572;2.652;2023-07-02T08:55:55;16.70;;;7.77;;
68449;SDS011;67758;39.572;2.652;2023-07-02T08:58:25;15.65;;;6.47;;
68449;SDS011;67758;39.572;2.652;2023-07-02T09:03:37;13.52;;;5.97;;
68449;SDS011;67758;39.572;2.652;2023-07-02T09:06:05;13.65;;;7.20;;
68449;SDS011;67758;39.572;2.652;2023-07-02T09:08:32;15.47;;;6.57;;
68449;SDS011;67758;39.572;2.652;2023-07-02T09:11:13;12.98;;;6.70;;
68449;SDS011;67758;39.572;2.652;2023-07-02T09:13:48;14.13;;;6.30;;
68449;SDS011;67758;39.572;2.652;2023-07-02T09:16:22;13.40;;;7.10;;
68449;SDS011;67758;39.572;2.652;2023-07-02T09:19:04;13.50;;;6.25;;
68449;SDS011;67758;39.572;2.652;2023-07-02T09:24:13;13.18;;;6.82;;
68449;SDS011;67758;39.572;2.652;2023-07-02T09:26:45;17.30;;;8.05;;
68449;SDS011;67758;39.572;2.652;2023-07-02T09:29:12;13.57;;;7.05;;
68449;SDS011;67758;39.572;2.652;2023-07-02T09:31:45;16.40;;;6.18;;
68449;SDS011;67758;39.572;2.652;2023-07-02T09:34:13;18.17;;;7.50;;
68449;SDS011;67758;39.572;2.652;2023-07-02T09:36:39;15.75;;;7.30;;
68449;SDS011;67758;39.572;2.652;2023-07-02T09:39:11;15.50;;;8.00;;
68449;SDS011;67758;39.572;2.652;2023-07-02T09:41:44;16.75;;;7.47;;
68449;SDS011;67758;39.572;2.652;2023-07-02T09:44:14;15.07;;;7.78;;
68449;SDS011;67758;39.572;2.652;2023-07-02T09:46:42;18.48;;;7.15;;
68449;SDS011;67758;39.572;2.652;2023-07-02T09:49:23;13.75;;;6.15;;
68449;SDS011;67758;39.572;2.652;2023-07-02T09:51:50;12.68;;;6.65;;
68449;SDS011;67758;39.572;2.652;2023-07-02T09:54:16;17.15;;;6.57;;
68449;SDS011;67758;39.572;2.652;2023-07-02T09:56:43;16.80;;;6.88;;
68449;SDS011;67758;39.572;2.652;2023-07-02T09:59:10;18.38;;;6.97;;
68449;SDS011;67758;39.572;2.652;2023-07-02T10:01:36;12.73;;;6.15;;
68449;SDS011;67758;39.572;2.652;2023-07-02T10:04:15;13.88;;;6.20;;
68449;SDS011;67758;39.572;2.652;2023-07-02T10:06:44;14.27;;;6.57;;
68449;SDS011;67758;39.572;2.652;2023-07-02T10:09:17;17.45;;;6.78;;
68449;SDS011;67758;39.572;2.652;2023-07-02T10:11:44;15.98;;;7.05;;
68449;SDS011;67758;39.572;2.652;2023-07-02T10:14:10;13.57;;;6.38;;
68449;SDS011;67758;39.572;2.652;2023-07-02T10:16:49;13.13;;;6.93;;
68449;SDS011;67758;39.572;2.652;2023-07-02T10:19:16;14.88;;;6.57;;
68449;SDS011;67758;39.572;2.652;2023-07-02T10:21:45;15.48;;;6.90;;
68449;SDS011;67758;39.572;2.652;2023-07-02T10:24:11;12.27;;;7.63;;
68449;SDS011;67758;39.572;2.652;2023-07-02T10:27:01;11.77;;;6.68;;
68449;SDS011;67758;39.572;2.652;2023-07-02T10:29:28;12.43;;;7.65;;
68449;SDS011;67758;39.572;2.652;2023-07-02T10:31:55;13.02;;;7.68;;
68449;SDS011;67758;39.572;2.652;2023-07-02T10:34:32;13.55;;;7.38;;
68449;SDS011;67758;39.572;2.652;2023-07-02T10:37:03;17.90;;;8.35;;
68449;SDS011;67758;39.572;2.652;2023-07-02T10:39:30;13.52;;;7.63;;
68449;SDS011;67758;39.572;2.652;2023-07-02T10:42:09;14.60;;;7.43;;
68449;SDS011;67758;39.572;2.652;2023-07-02T10:44:46;14.30;;;8.32;;
68449;SDS011;67758;39.572;2.652;2023-07-02T10:47:14;10.45;;;7.18;;
68449;SDS011;67758;39.572;2.652;2023-07-02T10:49:40;12.57;;;9.00;;
68449;SDS011;67758;39.572;2.652;2023-07-02T10:52:05;14.32;;;8.18;;
68449;SDS011;67758;39.572;2.652;2023-07-02T10:54:48;15.20;;;8.27;;
68449;SDS011;67758;39.572;2.652;2023-07-02T10:57:17;16.30;;;8.63;;
68449;SDS011;67758;39.572;2.652;2023-07-02T10:59:47;14.38;;;8.57;;
68449;SDS011;67758;39.572;2.652;2023-07-02T11:02:14;15.23;;;8.38;;
68449;SDS011;67758;39.572;2.652;2023-07-02T11:04:40;14.57;;;8.40;;
68449;SDS011;67758;39.572;2.652;2023-07-02T11:07:06;14.07;;;8.25;;
68449;SDS011;67758;39.572;2.652;2023-07-02T11:09:32;15.57;;;9.33;;
68449;SDS011;67758;39.572;2.652;2023-07-02T11:11:59;12.90;;;8.20;;
68449;SDS011;67758;39.572;2.652;2023-07-02T11:14:32;12.10;;;8.15;;
68449;SDS011;67758;39.572;2.652;2023-07-02T11:17:00;15.60;;;8.53;;
68449;SDS011;67758;39.572;2.652;2023-07-02T11:19:28;18.05;;;8.32;;
68449;SDS011;67758;39.572;2.652;2023-07-02T11:21:55;14.93;;;9.35;;
68449;SDS011;67758;39.572;2.652;2023-07-02T11:24:30;22.77;;;9.65;;
68449;SDS011;67758;39.572;2.652;2023-07-02T11:26:57;12.93;;;8.35;;
68449;SDS011;67758;39.572;2.652;2023-07-02T11:29:23;13.07;;;8.20;;
68449;SDS011;67758;39.572;2.652;2023-07-02T11:31:50;13.60;;;9.43;;
68449;SDS011;67758;39.572;2.652;2023-07-02T11:34:16;13.45;;;8.95;;
68449;SDS011;67758;39.572;2.652;2023-07-02T11:36:43;13.52;;;8.95;;
68449;SDS011;67758;39.572;2.652;2023-07-02T11:39:09;12.07;;;8.33;;
68449;SDS011;67758;39.572;2.652;2023-07-02T11:41:38;13.35;;;9.38;;
68449;SDS011;67758;39.572;2.652;2023-07-02T11:44:05;14.53;;;8.47;;
68449;SDS011;67758;39.572;2.652;2023-07-02T11:46:31;13.73;;;9.45;;
68449;SDS011;67758;39.572;2.652;2023-07-02T11:48:57;17.00;;;9.68;;
68449;SDS011;67758;39.572;2.652;2023-07-02T11:51:22;13.60;;;8.63;;
68449;SDS011;67758;39.572;2.652;2023-07-02T11:53:48;14.18;;;8.55;;
68449;SDS011;67758;39.572;2.652;2023-07-02T11:56:14;13.60;;;8.95;;
68449;SDS011;67758;39.572;2.652;2023-07-02T11:58:40;15.37;;;8.30;;
68449;SDS011;67758;39.572;2.652;2023-07-02T12:01:07;12.52;;;8.23;;
68449;SDS011;67758;39.572;2.652;2023-07-02T12:03:33;15.07;;;8.50;;
68449;SDS011;67758;39.572;2.652;2023-07-02T12:05:58;12.90;;;8.57;;
68449;SDS011;67758;39.572;2.652;2023-07-02T12:08:24;13.70;;;8.48;;
68449;SDS011;67758;39.572;2.652;2023-07-02T12:10:50;14.30;;;8.87;;
68449;SDS011;67758;39.572;2.652;2023-07-02T12:13:17;14.00;;;8.23;;
68449;SDS011;67758;39.572;2.652;2023-07-02T12:15:42;14.52;;;7.90;;
68449;SDS011;67758;39.572;2.652;2023-07-02T12:18:09;14.50;;;7.97;;
68449;SDS011;67758;39.572;2.652;2023-07-02T12:20:35;13.88;;;8.50;;
68449;SDS011;67758;39.572;2.652;2023-07-02T12:23:01;13.15;;;7.85;;
68449;SDS011;67758;39.572;2.652;2023-07-02T12:25:28;13.48;;;7.85;;
68449;SDS011;67758;39.572;2.652;2023-07-02T12:27:54;12.90;;;7.73;;
68449;SDS011;67758;39.572;2.652;2023-07-02T12:30:21;13.23;;;8.70;;
68449;SDS011;67758;39.572;2.652;2023-07-02T12:32:46;11.37;;;7.20;;
68449;SDS011;67758;39.572;2.652;2023-07-02T12:35:12;15.35;;;7.75;;
68449;SDS011;67758;39.572;2.652;2023-07-02T12:37:44;15.27;;;9.43;;
68449;SDS011;67758;39.572;2.652;2023-07-02T12:40:11;13.20;;;8.88;;
68449;SDS011;67758;39.572;2.652;2023-07-02T12:42:38;12.43;;;7.70;;
68449;SDS011;67758;39.572;2.652;2023-07-02T12:45:07;14.27;;;8.32;;
68449;SDS011;67758;39.572;2.652;2023-07-02T12:47:33;14.00;;;7.80;;
68449;SDS011;67758;39.572;2.652;2023-07-02T12:49:59;12.10;;;7.93;;
68449;SDS011;67758;39.572;2.652;2023-07-02T12:52:25;13.68;;;7.68;;
68449;SDS011;67758;39.572;2.652;2023-07-02T12:54:51;12.63;;;7.83;;
68449;SDS011;67758;39.572;2.652;2023-07-02T12:57:17;12.82;;;8.68;;
68449;SDS011;67758;39.572;2.652;2023-07-02T12:59:43;13.93;;;7.87;;
68449;SDS011;67758;39.572;2.652;2023-07-02T13:02:09;14.95;;;7.35;;
68449;SDS011;67758;39.572;2.652;2023-07-02T13:04:36;13.25;;;7.75;;
68449;SDS011;67758;39.572;2.652;2023-07-02T13:07:01;14.50;;;7.23;;
68449;SDS011;67758;39.572;2.652;2023-07-02T13:09:27;15.07;;;7.68;;
68449;SDS011;67758;39.572;2.652;2023-07-02T13:11:53;18.52;;;8.23;;
68449;SDS011;67758;39.572;2.652;2023-07-02T13:14:19;13.00;;;8.13;;
68449;SDS011;67758;39.572;2.652;2023-07-02T13:16:46;12.68;;;7.95;;
68449;SDS011;67758;39.572;2.652;2023-07-02T13:19:12;12.77;;;7.10;;
68449;SDS011;67758;39.572;2.652;2023-07-02T13:21:38;12.77;;;7.25;;
68449;SDS011;67758;39.572;2.652;2023-07-02T13:24:04;11.32;;;6.60;;
68449;SDS011;67758;39.572;2.652;2023-07-02T13:26:30;11.50;;;6.63;;
68449;SDS011;67758;39.572;2.652;2023-07-02T13:28:55;12.17;;;7.20;;
68449;SDS011;67758;39.572;2.652;2023-07-02T13:31:21;13.77;;;7.78;;
68449;SDS011;67758;39.572;2.652;2023-07-02T13:33:47;14.00;;;7.90;;
68449;SDS011;67758;39.572;2.652;2023-07-02T13:36:16;11.80;;;7.40;;
68449;SDS011;67758;39.572;2.652;2023-07-02T13:38:42;11.80;;;7.53;;
68449;SDS011;67758;39.572;2.652;2023-07-02T13:41:07;13.27;;;8.03;;
68449;SDS011;67758;39.572;2.652;2023-07-02T13:43:33;11.80;;;6.97;;
68449;SDS011;67758;39.572;2.652;2023-07-02T13:45:59;13.00;;;7.57;;
68449;SDS011;67758;39.572;2.652;2023-07-02T13:48:25;12.73;;;7.57;;
68449;SDS011;67758;39.572;2.652;2023-07-02T13:50:50;11.73;;;7.00;;
68449;SDS011;67758;39.572;2.652;2023-07-02T13:53:16;13.17;;;6.90;;
68449;SDS011;67758;39.572;2.652;2023-07-02T13:55:42;12.13;;;7.27;;
68449;SDS011;67758;39.572;2.652;2023-07-02T13:58:08;15.30;;;7.25;;
68449;SDS011;67758;39.572;2.652;2023-07-02T14:00:33;12.07;;;6.93;;
68449;SDS011;67758;39.572;2.652;2023-07-02T14:02:59;12.68;;;7.35;;
68449;SDS011;67758;39.572;2.652;2023-07-02T14:05:25;13.57;;;7.53;;
68449;SDS011;67758;39.572;2.652;2023-07-02T14:07:51;12.57;;;6.47;;
68449;SDS011;67758;39.572;2.652;2023-07-02T14:10:17;13.00;;;7.18;;
68449;SDS011;67758;39.572;2.652;2023-07-02T14:12:44;13.55;;;6.97;;
68449;SDS011;67758;39.572;2.652;2023-07-02T14:15:10;12.77;;;7.47;;
68449;SDS011;67758;39.572;2.652;2023-07-02T14:17:36;13.82;;;7.43;;
68449;SDS011;67758;39.572;2.652;2023-07-02T14:20:02;14.20;;;7.40;;
68449;SDS011;67758;39.572;2.652;2023-07-02T14:22:29;11.47;;;7.07;;
68449;SDS011;67758;39.572;2.652;2023-07-02T14:24:56;11.38;;;7.70;;
68449;SDS011;67758;39.572;2.652;2023-07-02T14:27:21;11.88;;;7.82;;
68449;SDS011;67758;39.572;2.652;2023-07-02T14:29:47;13.37;;;8.07;;
68449;SDS011;67758;39.572;2.652;2023-07-02T14:32:13;11.18;;;7.05;;
68449;SDS011;67758;39.572;2.652;2023-07-02T14:34:40;12.53;;;7.90;;
68449;SDS011;67758;39.572;2.652;2023-07-02T14:37:05;12.20;;;7.63;;
68449;SDS011;67758;39.572;2.652;2023-07-02T14:39:32;14.20;;;7.88;;
68449;SDS011;67758;39.572;2.652;2023-07-02T14:41:59;12.55;;;7.75;;
68449;SDS011;67758;39.572;2.652;2023-07-02T14:44:25;13.13;;;7.43;;
68449;SDS011;67758;39.572;2.652;2023-07-02T14:46:50;13.48;;;7.70;;
68449;SDS011;67758;39.572;2.652;2023-07-02T14:49:16;12.67;;;7.87;;
68449;SDS011;67758;39.572;2.652;2023-07-02T14:51:42;15.25;;;7.15;;
68449;SDS011;67758;39.572;2.652;2023-07-02T14:54:09;11.57;;;8.05;;
68449;SDS011;67758;39.572;2.652;2023-07-02T14:56:35;12.25;;;8.05;;